sensor_id;sensor_type;location;lat;lon;timestamp;P1;durP1;ratioP1;P2;durP2;ratioP2
20621;SDS011;10470;42.670;23.354;2022-12-07T00:01:41;31.83;;;16.60;;
20621;SDS011;10470;42.670;23.354;2022-12-07T00:04:28;32.97;;;16.47;;
20621;SDS011;10470;42.670;23.354;2022-12-07T00:07:13;33.97;;;16.83;;
20621;SDS011;10470;42.670;23.354;2022-12-07T00:09:59;32.07;;;16.70;;
20621;SDS011;10470;42.670;23.354;2022-12-07T00:12:44;38.63;;;17.57;;
20621;SDS011;10470;42.670;23.354;2022-12-07T00:15:26;37.50;;;17.07;;
20621;SDS011;10470;42.670;23.354;2022-12-07T00:18:05;35.53;;;17.47;;
20621;SDS011;10470;42.670;23.354;2022-12-07T00:20:50;34.70;;;17.47;;
20621;SDS011;10470;42.670;23.354;2022-12-07T00:23:36;35.10;;;17.87;;
20621;SDS011;10470;42.670;23.354;2022-12-07T00:26:23;37.10;;;18.70;;
20621;SDS011;10470;42.670;23.354;2022-12-07T00:29:17;36.93;;;17.77;;
20621;SDS011;10470;42.670;23.354;2022-12-07T00:32:06;39.17;;;19.90;;
20621;SDS011;10470;42.670;23.354;2022-12-07T00:34:42;41.17;;;21.53;;
20621;SDS011;10470;42.670;23.354;2022-12-07T00:37:20;42.17;;;20.03;;
20621;SDS011;10470;42.670;23.354;2022-12-07T00:40:07;35.80;;;19.63;;
20621;SDS011;10470;42.670;23.354;2022-12-07T00:42:53;38.43;;;19.23;;
20621;SDS011;10470;42.670;23.354;2022-12-07T00:45:38;33.60;;;19.00;;
20621;SDS011;10470;42.670;23.354;2022-12-07T00:48:25;37.00;;;19.10;;
20621;SDS011;10470;42.670;23.354;2022-12-07T00:51:01;40.77;;;19.43;;
20621;SDS011;10470;42.670;23.354;2022-12-07T00:53:48;37.17;;;19.10;;
20621;SDS011;10470;42.670;23.354;2022-12-07T00:56:34;35.87;;;17.83;;
20621;SDS011;10470;42.670;23.354;2022-12-07T00:59:19;38.00;;;18.70;;
20621;SDS011;10470;42.670;23.354;2022-12-07T01:02:05;33.60;;;18.50;;
20621;SDS011;10470;42.670;23.354;2022-12-07T01:04:50;34.10;;;17.13;;
20621;SDS011;10470;42.670;23.354;2022-12-07T01:07:29;33.17;;;17.40;;
20621;SDS011;10470;42.670;23.354;2022-12-07T01:10:00;37.47;;;18.27;;
20621;SDS011;10470;42.670;23.354;2022-12-07T01:12:45;31.27;;;17.37;;
20621;SDS011;10470;42.670;23.354;2022-12-07T01:15:31;30.97;;;17.47;;
20621;SDS011;10470;42.670;23.354;2022-12-07T01:18:16;33.50;;;18.13;;
20621;SDS011;10470;42.670;23.354;2022-12-07T01:23:49;33.50;;;18.90;;
20621;SDS011;10470;42.670;23.354;2022-12-07T01:26:36;37.37;;;18.30;;
20621;SDS011;10470;42.670;23.354;2022-12-07T01:29:21;34.67;;;18.83;;
20621;SDS011;10470;42.670;23.354;2022-12-07T01:32:07;34.23;;;18.80;;
20621;SDS011;10470;42.670;23.354;2022-12-07T01:34:53;40.67;;;18.93;;
20621;SDS011;10470;42.670;23.354;2022-12-07T01:37:38;38.03;;;18.13;;
20621;SDS011;10470;42.670;23.354;2022-12-07T01:40:24;38.37;;;18.73;;
20621;SDS011;10470;42.670;23.354;2022-12-07T01:43:16;38.47;;;19.50;;
20621;SDS011;10470;42.670;23.354;2022-12-07T01:46:04;35.57;;;18.73;;
20621;SDS011;10470;42.670;23.354;2022-12-07T01:48:49;36.20;;;18.63;;
20621;SDS011;10470;42.670;23.354;2022-12-07T01:51:35;35.30;;;18.47;;
20621;SDS011;10470;42.670;23.354;2022-12-07T01:54:23;35.97;;;19.00;;
20621;SDS011;10470;42.670;23.354;2022-12-07T01:57:10;36.73;;;18.37;;
20621;SDS011;10470;42.670;23.354;2022-12-07T01:59:58;35.33;;;18.03;;
20621;SDS011;10470;42.670;23.354;2022-12-07T02:05:52;40.40;;;19.23;;
20621;SDS011;10470;42.670;23.354;2022-12-07T02:08:39;38.67;;;19.33;;
20621;SDS011;10470;42.670;23.354;2022-12-07T02:11:26;38.43;;;19.50;;
20621;SDS011;10470;42.670;23.354;2022-12-07T02:13:54;37.37;;;19.47;;
20621;SDS011;10470;42.670;23.354;2022-12-07T02:16:46;44.43;;;20.50;;
20621;SDS011;10470;42.670;23.354;2022-12-07T02:29:31;37.33;;;19.53;;
20621;SDS011;10470;42.670;23.354;2022-12-07T02:35:39;39.47;;;19.97;;
20621;SDS011;10470;42.670;23.354;2022-12-07T02:42:00;38.47;;;20.27;;
20621;SDS011;10470;42.670;23.354;2022-12-07T02:44:52;37.33;;;19.20;;
20621;SDS011;10470;42.670;23.354;2022-12-07T02:47:38;40.17;;;20.10;;
20621;SDS011;10470;42.670;23.354;2022-12-07T02:50:26;40.87;;;21.30;;
20621;SDS011;10470;42.670;23.354;2022-12-07T02:53:35;38.67;;;20.83;;
20621;SDS011;10470;42.670;23.354;2022-12-07T03:00:20;42.70;;;21.20;;
20621;SDS011;10470;42.670;23.354;2022-12-07T03:09:27;48.80;;;23.70;;
20621;SDS011;10470;42.670;23.354;2022-12-07T03:12:14;45.67;;;23.43;;
20621;SDS011;10470;42.670;23.354;2022-12-07T03:15:10;47.20;;;24.37;;
20621;SDS011;10470;42.670;23.354;2022-12-07T03:18:01;50.40;;;23.73;;
20621;SDS011;10470;42.670;23.354;2022-12-07T03:20:50;48.17;;;22.87;;
20621;SDS011;10470;42.670;23.354;2022-12-07T03:23:38;41.07;;;22.40;;
20621;SDS011;10470;42.670;23.354;2022-12-07T03:26:30;40.87;;;22.37;;
20621;SDS011;10470;42.670;23.354;2022-12-07T03:29:33;44.17;;;22.20;;
20621;SDS011;10470;42.670;23.354;2022-12-07T03:32:27;44.30;;;23.70;;
20621;SDS011;10470;42.670;23.354;2022-12-07T03:35:32;46.07;;;24.43;;
20621;SDS011;10470;42.670;23.354;2022-12-07T03:38:23;54.60;;;24.97;;
20621;SDS011;10470;42.670;23.354;2022-12-07T03:41:28;47.13;;;24.17;;
20621;SDS011;10470;42.670;23.354;2022-12-07T03:44:16;53.10;;;25.20;;
20621;SDS011;10470;42.670;23.354;2022-12-07T03:46:52;46.03;;;23.53;;
20621;SDS011;10470;42.670;23.354;2022-12-07T03:53:02;44.53;;;22.73;;
20621;SDS011;10470;42.670;23.354;2022-12-07T03:55:54;45.47;;;23.43;;
20621;SDS011;10470;42.670;23.354;2022-12-07T03:58:42;43.17;;;22.80;;
20621;SDS011;10470;42.670;23.354;2022-12-07T04:01:29;40.67;;;22.00;;
20621;SDS011;10470;42.670;23.354;2022-12-07T04:04:14;44.37;;;23.07;;
20621;SDS011;10470;42.670;23.354;2022-12-07T04:07:00;45.20;;;22.93;;
20621;SDS011;10470;42.670;23.354;2022-12-07T04:09:45;39.13;;;20.97;;
20621;SDS011;10470;42.670;23.354;2022-12-07T04:12:31;39.40;;;21.67;;
20621;SDS011;10470;42.670;23.354;2022-12-07T04:15:16;37.13;;;19.73;;
20621;SDS011;10470;42.670;23.354;2022-12-07T04:18:02;40.70;;;20.40;;
20621;SDS011;10470;42.670;23.354;2022-12-07T04:20:48;39.30;;;20.57;;
20621;SDS011;10470;42.670;23.354;2022-12-07T04:23:33;35.63;;;20.27;;
20621;SDS011;10470;42.670;23.354;2022-12-07T04:26:19;36.93;;;20.80;;
20621;SDS011;10470;42.670;23.354;2022-12-07T04:29:04;50.43;;;24.87;;
20621;SDS011;10470;42.670;23.354;2022-12-07T04:31:50;41.73;;;21.97;;
20621;SDS011;10470;42.670;23.354;2022-12-07T04:34:36;42.13;;;21.70;;
20621;SDS011;10470;42.670;23.354;2022-12-07T04:37:22;46.03;;;22.07;;
20621;SDS011;10470;42.670;23.354;2022-12-07T04:40:08;40.23;;;21.23;;
20621;SDS011;10470;42.670;23.354;2022-12-07T04:42:56;44.60;;;21.77;;
20621;SDS011;10470;42.670;23.354;2022-12-07T04:45:45;39.77;;;19.30;;
20621;SDS011;10470;42.670;23.354;2022-12-07T04:48:32;41.10;;;20.17;;
20621;SDS011;10470;42.670;23.354;2022-12-07T04:51:06;40.37;;;19.37;;
20621;SDS011;10470;42.670;23.354;2022-12-07T04:53:52;41.47;;;21.60;;
20621;SDS011;10470;42.670;23.354;2022-12-07T04:56:39;40.37;;;22.00;;
20621;SDS011;10470;42.670;23.354;2022-12-07T04:59:24;40.37;;;21.17;;
20621;SDS011;10470;42.670;23.354;2022-12-07T05:02:10;42.83;;;21.00;;
20621;SDS011;10470;42.670;23.354;2022-12-07T05:04:56;42.07;;;21.03;;
20621;SDS011;10470;42.670;23.354;2022-12-07T05:07:41;48.47;;;25.73;;
20621;SDS011;10470;42.670;23.354;2022-12-07T05:10:27;46.33;;;24.03;;
20621;SDS011;10470;42.670;23.354;2022-12-07T05:13:12;44.77;;;20.90;;
20621;SDS011;10470;42.670;23.354;2022-12-07T05:15:58;40.87;;;21.10;;
20621;SDS011;10470;42.670;23.354;2022-12-07T05:18:43;50.23;;;25.57;;
20621;SDS011;10470;42.670;23.354;2022-12-07T05:21:29;40.30;;;20.13;;
20621;SDS011;10470;42.670;23.354;2022-12-07T05:24:15;42.63;;;22.00;;
20621;SDS011;10470;42.670;23.354;2022-12-07T05:27:01;41.17;;;21.40;;
20621;SDS011;10470;42.670;23.354;2022-12-07T05:29:47;49.23;;;24.10;;
20621;SDS011;10470;42.670;23.354;2022-12-07T05:32:34;39.27;;;19.33;;
20621;SDS011;10470;42.670;23.354;2022-12-07T05:35:20;42.13;;;20.37;;
20621;SDS011;10470;42.670;23.354;2022-12-07T05:38:05;41.00;;;20.20;;
20621;SDS011;10470;42.670;23.354;2022-12-07T05:40:50;40.70;;;19.30;;
20621;SDS011;10470;42.670;23.354;2022-12-07T05:43:26;41.60;;;19.70;;
20621;SDS011;10470;42.670;23.354;2022-12-07T05:46:12;43.83;;;20.67;;
20621;SDS011;10470;42.670;23.354;2022-12-07T05:48:58;43.23;;;21.67;;
20621;SDS011;10470;42.670;23.354;2022-12-07T05:51:43;49.10;;;21.87;;
20621;SDS011;10470;42.670;23.354;2022-12-07T05:54:29;44.60;;;22.27;;
20621;SDS011;10470;42.670;23.354;2022-12-07T05:57:14;44.37;;;21.70;;
20621;SDS011;10470;42.670;23.354;2022-12-07T06:00:00;52.23;;;22.67;;
20621;SDS011;10470;42.670;23.354;2022-12-07T06:02:46;45.90;;;21.90;;
20621;SDS011;10470;42.670;23.354;2022-12-07T06:05:31;48.57;;;22.60;;
20621;SDS011;10470;42.670;23.354;2022-12-07T06:08:17;46.43;;;21.80;;
20621;SDS011;10470;42.670;23.354;2022-12-07T06:11:02;44.50;;;21.73;;
20621;SDS011;10470;42.670;23.354;2022-12-07T06:14:06;43.60;;;21.47;;
20621;SDS011;10470;42.670;23.354;2022-12-07T06:16:52;49.53;;;20.87;;
20621;SDS011;10470;42.670;23.354;2022-12-07T06:19:38;48.27;;;21.40;;
20621;SDS011;10470;42.670;23.354;2022-12-07T06:22:24;48.37;;;22.13;;
20621;SDS011;10470;42.670;23.354;2022-12-07T06:25:09;43.63;;;21.03;;
20621;SDS011;10470;42.670;23.354;2022-12-07T06:27:55;45.03;;;21.83;;
20621;SDS011;10470;42.670;23.354;2022-12-07T06:30:40;46.00;;;23.20;;
20621;SDS011;10470;42.670;23.354;2022-12-07T06:33:27;48.93;;;22.17;;
20621;SDS011;10470;42.670;23.354;2022-12-07T06:36:13;49.40;;;22.07;;
20621;SDS011;10470;42.670;23.354;2022-12-07T06:38:52;44.33;;;21.27;;
20621;SDS011;10470;42.670;23.354;2022-12-07T06:41:38;42.50;;;21.00;;
20621;SDS011;10470;42.670;23.354;2022-12-07T06:44:24;56.77;;;26.47;;
20621;SDS011;10470;42.670;23.354;2022-12-07T06:47:10;52.57;;;24.80;;
20621;SDS011;10470;42.670;23.354;2022-12-07T06:49:56;51.20;;;23.03;;
20621;SDS011;10470;42.670;23.354;2022-12-07T06:52:41;49.57;;;22.07;;
20621;SDS011;10470;42.670;23.354;2022-12-07T06:55:27;44.50;;;22.27;;
20621;SDS011;10470;42.670;23.354;2022-12-07T06:58:13;45.17;;;21.73;;
20621;SDS011;10470;42.670;23.354;2022-12-07T07:00:58;47.20;;;21.20;;
20621;SDS011;10470;42.670;23.354;2022-12-07T07:03:44;44.77;;;20.90;;
20621;SDS011;10470;42.670;23.354;2022-12-07T07:06:31;46.87;;;22.43;;
20621;SDS011;10470;42.670;23.354;2022-12-07T07:09:17;46.00;;;21.57;;
20621;SDS011;10470;42.670;23.354;2022-12-07T07:11:54;44.30;;;20.37;;
20621;SDS011;10470;42.670;23.354;2022-12-07T07:14:39;42.33;;;19.77;;
20621;SDS011;10470;42.670;23.354;2022-12-07T07:17:25;43.57;;;20.13;;
20621;SDS011;10470;42.670;23.354;2022-12-07T07:20:10;41.23;;;19.70;;
20621;SDS011;10470;42.670;23.354;2022-12-07T07:22:56;47.87;;;20.50;;
20621;SDS011;10470;42.670;23.354;2022-12-07T07:25:42;42.70;;;20.57;;
20621;SDS011;10470;42.670;23.354;2022-12-07T07:28:23;46.80;;;22.13;;
20621;SDS011;10470;42.670;23.354;2022-12-07T07:30:59;46.63;;;21.60;;
20621;SDS011;10470;42.670;23.354;2022-12-07T07:33:45;40.63;;;20.27;;
20621;SDS011;10470;42.670;23.354;2022-12-07T07:36:32;41.67;;;20.90;;
20621;SDS011;10470;42.670;23.354;2022-12-07T07:39:18;44.33;;;21.97;;
20621;SDS011;10470;42.670;23.354;2022-12-07T07:42:03;48.50;;;22.77;;
20621;SDS011;10470;42.670;23.354;2022-12-07T07:44:49;42.23;;;21.37;;
20621;SDS011;10470;42.670;23.354;2022-12-07T07:47:35;43.30;;;20.83;;
20621;SDS011;10470;42.670;23.354;2022-12-07T07:50:20;45.07;;;21.10;;
20621;SDS011;10470;42.670;23.354;2022-12-07T07:53:06;44.43;;;21.57;;
20621;SDS011;10470;42.670;23.354;2022-12-07T07:55:52;48.00;;;24.00;;
20621;SDS011;10470;42.670;23.354;2022-12-07T07:58:38;48.43;;;25.73;;
20621;SDS011;10470;42.670;23.354;2022-12-07T08:01:16;48.17;;;22.60;;
20621;SDS011;10470;42.670;23.354;2022-12-07T08:03:53;43.23;;;22.20;;
20621;SDS011;10470;42.670;23.354;2022-12-07T08:06:39;39.13;;;20.73;;
20621;SDS011;10470;42.670;23.354;2022-12-07T08:09:27;51.80;;;22.77;;
20621;SDS011;10470;42.670;23.354;2022-12-07T08:12:12;45.70;;;21.63;;
20621;SDS011;10470;42.670;23.354;2022-12-07T08:14:57;44.80;;;21.80;;
20621;SDS011;10470;42.670;23.354;2022-12-07T08:17:43;47.37;;;22.30;;
20621;SDS011;10470;42.670;23.354;2022-12-07T08:20:32;47.77;;;22.50;;
20621;SDS011;10470;42.670;23.354;2022-12-07T08:23:18;42.30;;;21.03;;
20621;SDS011;10470;42.670;23.354;2022-12-07T08:26:05;47.20;;;22.40;;
20621;SDS011;10470;42.670;23.354;2022-12-07T08:28:53;46.57;;;23.20;;
20621;SDS011;10470;42.670;23.354;2022-12-07T08:31:38;50.30;;;23.60;;
20621;SDS011;10470;42.670;23.354;2022-12-07T08:34:24;44.67;;;21.87;;
20621;SDS011;10470;42.670;23.354;2022-12-07T08:37:10;49.53;;;23.43;;
20621;SDS011;10470;42.670;23.354;2022-12-07T08:39:55;46.10;;;23.27;;
20621;SDS011;10470;42.670;23.354;2022-12-07T08:42:47;47.07;;;23.40;;
20621;SDS011;10470;42.670;23.354;2022-12-07T08:45:34;49.43;;;24.23;;
20621;SDS011;10470;42.670;23.354;2022-12-07T08:48:20;51.50;;;24.47;;
20621;SDS011;10470;42.670;23.354;2022-12-07T08:51:09;47.00;;;24.60;;
20621;SDS011;10470;42.670;23.354;2022-12-07T08:53:55;46.90;;;23.83;;
20621;SDS011;10470;42.670;23.354;2022-12-07T08:56:44;63.07;;;30.73;;
20621;SDS011;10470;42.670;23.354;2022-12-07T08:59:31;75.50;;;34.40;;
20621;SDS011;10470;42.670;23.354;2022-12-07T09:02:19;62.93;;;30.13;;
20621;SDS011;10470;42.670;23.354;2022-12-07T09:05:05;50.33;;;26.57;;
20621;SDS011;10470;42.670;23.354;2022-12-07T09:07:51;51.03;;;24.93;;
20621;SDS011;10470;42.670;23.354;2022-12-07T09:10:40;48.57;;;25.33;;
20621;SDS011;10470;42.670;23.354;2022-12-07T09:13:26;51.30;;;27.17;;
20621;SDS011;10470;42.670;23.354;2022-12-07T09:16:11;54.03;;;25.80;;
20621;SDS011;10470;42.670;23.354;2022-12-07T09:18:57;51.47;;;26.97;;
20621;SDS011;10470;42.670;23.354;2022-12-07T09:21:43;52.83;;;27.93;;
20621;SDS011;10470;42.670;23.354;2022-12-07T09:24:28;57.37;;;27.43;;
20621;SDS011;10470;42.670;23.354;2022-12-07T09:27:14;53.17;;;27.77;;
20621;SDS011;10470;42.670;23.354;2022-12-07T09:29:59;56.53;;;27.50;;
20621;SDS011;10470;42.670;23.354;2022-12-07T09:32:45;52.83;;;27.63;;
20621;SDS011;10470;42.670;23.354;2022-12-07T09:35:30;53.67;;;26.57;;
20621;SDS011;10470;42.670;23.354;2022-12-07T09:37:59;53.70;;;27.83;;
20621;SDS011;10470;42.670;23.354;2022-12-07T09:40:45;56.57;;;27.20;;
20621;SDS011;10470;42.670;23.354;2022-12-07T09:43:31;54.40;;;28.87;;
20621;SDS011;10470;42.670;23.354;2022-12-07T09:46:19;53.23;;;27.40;;
20621;SDS011;10470;42.670;23.354;2022-12-07T09:49:08;54.87;;;28.50;;
20621;SDS011;10470;42.670;23.354;2022-12-07T09:52:02;54.40;;;28.03;;
20621;SDS011;10470;42.670;23.354;2022-12-07T09:55:02;57.60;;;28.33;;
20621;SDS011;10470;42.670;23.354;2022-12-07T09:57:48;55.07;;;26.90;;
20621;SDS011;10470;42.670;23.354;2022-12-07T10:00:34;55.00;;;27.53;;
20621;SDS011;10470;42.670;23.354;2022-12-07T10:03:09;56.40;;;27.43;;
20621;SDS011;10470;42.670;23.354;2022-12-07T10:05:48;50.23;;;26.43;;
20621;SDS011;10470;42.670;23.354;2022-12-07T10:08:35;50.70;;;27.57;;
20621;SDS011;10470;42.670;23.354;2022-12-07T10:11:20;52.70;;;28.27;;
20621;SDS011;10470;42.670;23.354;2022-12-07T10:14:10;54.00;;;27.07;;
20621;SDS011;10470;42.670;23.354;2022-12-07T10:16:57;51.20;;;27.03;;
20621;SDS011;10470;42.670;23.354;2022-12-07T10:19:35;54.63;;;26.23;;
20621;SDS011;10470;42.670;23.354;2022-12-07T10:22:16;57.07;;;26.20;;
20621;SDS011;10470;42.670;23.354;2022-12-07T10:25:08;46.40;;;26.80;;
20621;SDS011;10470;42.670;23.354;2022-12-07T10:31:03;52.97;;;27.80;;
20621;SDS011;10470;42.670;23.354;2022-12-07T10:34:02;52.13;;;25.40;;
20621;SDS011;10470;42.670;23.354;2022-12-07T10:36:41;51.13;;;26.47;;
20621;SDS011;10470;42.670;23.354;2022-12-07T10:39:27;48.00;;;24.63;;
20621;SDS011;10470;42.670;23.354;2022-12-07T10:42:20;44.10;;;25.73;;
20621;SDS011;10470;42.670;23.354;2022-12-07T10:45:09;48.20;;;26.00;;
20621;SDS011;10470;42.670;23.354;2022-12-07T10:48:10;43.17;;;24.97;;
20621;SDS011;10470;42.670;23.354;2022-12-07T10:51:14;48.17;;;25.33;;
20621;SDS011;10470;42.670;23.354;2022-12-07T10:57:46;54.60;;;27.90;;
20621;SDS011;10470;42.670;23.354;2022-12-07T11:00:51;42.87;;;21.60;;
20621;SDS011;10470;42.670;23.354;2022-12-07T11:09:55;47.80;;;23.73;;
20621;SDS011;10470;42.670;23.354;2022-12-07T11:18:48;37.77;;;18.33;;
20621;SDS011;10470;42.670;23.354;2022-12-07T11:21:56;35.10;;;18.70;;
20621;SDS011;10470;42.670;23.354;2022-12-07T11:34:03;34.53;;;19.03;;
20621;SDS011;10470;42.670;23.354;2022-12-07T11:37:00;37.23;;;20.20;;
20621;SDS011;10470;42.670;23.354;2022-12-07T11:39:50;41.27;;;19.93;;
20621;SDS011;10470;42.670;23.354;2022-12-07T11:42:41;37.70;;;18.20;;
20621;SDS011;10470;42.670;23.354;2022-12-07T11:45:32;35.73;;;18.33;;
20621;SDS011;10470;42.670;23.354;2022-12-07T11:48:22;31.80;;;16.97;;
20621;SDS011;10470;42.670;23.354;2022-12-07T11:51:22;31.77;;;14.93;;
20621;SDS011;10470;42.670;23.354;2022-12-07T11:57:01;30.87;;;15.70;;
20621;SDS011;10470;42.670;23.354;2022-12-07T11:59:52;33.97;;;16.20;;
20621;SDS011;10470;42.670;23.354;2022-12-07T12:02:57;25.70;;;14.03;;
20621;SDS011;10470;42.670;23.354;2022-12-07T12:05:46;25.57;;;14.77;;
20621;SDS011;10470;42.670;23.354;2022-12-07T12:08:40;28.30;;;14.47;;
20621;SDS011;10470;42.670;23.354;2022-12-07T12:14:56;31.53;;;15.07;;
20621;SDS011;10470;42.670;23.354;2022-12-07T12:17:58;29.47;;;14.63;;
20621;SDS011;10470;42.670;23.354;2022-12-07T12:20:56;32.90;;;14.47;;
20621;SDS011;10470;42.670;23.354;2022-12-07T12:27:00;32.13;;;14.47;;
20621;SDS011;10470;42.670;23.354;2022-12-07T12:29:54;21.80;;;12.33;;
20621;SDS011;10470;42.670;23.354;2022-12-07T12:32:42;24.00;;;12.20;;
20621;SDS011;10470;42.670;23.354;2022-12-07T12:35:31;31.93;;;17.37;;
20621;SDS011;10470;42.670;23.354;2022-12-07T12:38:30;26.00;;;12.87;;
20621;SDS011;10470;42.670;23.354;2022-12-07T12:45:02;24.90;;;13.73;;
20621;SDS011;10470;42.670;23.354;2022-12-07T12:51:37;23.13;;;13.63;;
20621;SDS011;10470;42.670;23.354;2022-12-07T12:54:31;23.47;;;12.83;;
20621;SDS011;10470;42.670;23.354;2022-12-07T12:57:22;17.93;;;11.30;;
20621;SDS011;10470;42.670;23.354;2022-12-07T13:03:02;20.77;;;10.13;;
20621;SDS011;10470;42.670;23.354;2022-12-07T13:05:48;19.07;;;10.90;;
20621;SDS011;10470;42.670;23.354;2022-12-07T13:09:21;21.53;;;10.97;;
20621;SDS011;10470;42.670;23.354;2022-12-07T13:12:14;22.80;;;11.60;;
20621;SDS011;10470;42.670;23.354;2022-12-07T13:15:01;22.30;;;12.03;;
20621;SDS011;10470;42.670;23.354;2022-12-07T13:17:57;21.50;;;12.03;;
20621;SDS011;10470;42.670;23.354;2022-12-07T13:20:49;20.37;;;11.70;;
20621;SDS011;10470;42.670;23.354;2022-12-07T13:26:35;19.10;;;11.00;;
20621;SDS011;10470;42.670;23.354;2022-12-07T13:29:22;24.67;;;11.37;;
20621;SDS011;10470;42.670;23.354;2022-12-07T13:32:21;21.53;;;11.03;;
20621;SDS011;10470;42.670;23.354;2022-12-07T13:35:26;21.10;;;11.30;;
20621;SDS011;10470;42.670;23.354;2022-12-07T13:38:32;20.47;;;11.80;;
20621;SDS011;10470;42.670;23.354;2022-12-07T13:41:19;23.70;;;12.20;;
20621;SDS011;10470;42.670;23.354;2022-12-07T13:44:11;24.67;;;11.73;;
20621;SDS011;10470;42.670;23.354;2022-12-07T13:49:50;26.67;;;11.37;;
20621;SDS011;10470;42.670;23.354;2022-12-07T13:52:43;19.37;;;11.13;;
20621;SDS011;10470;42.670;23.354;2022-12-07T13:55:30;26.77;;;11.97;;
20621;SDS011;10470;42.670;23.354;2022-12-07T13:58:15;27.57;;;12.77;;
20621;SDS011;10470;42.670;23.354;2022-12-07T14:01:02;24.43;;;13.23;;
20621;SDS011;10470;42.670;23.354;2022-12-07T14:03:47;23.40;;;12.63;;
20621;SDS011;10470;42.670;23.354;2022-12-07T14:06:33;26.33;;;12.97;;
20621;SDS011;10470;42.670;23.354;2022-12-07T14:09:20;26.13;;;12.43;;
20621;SDS011;10470;42.670;23.354;2022-12-07T14:12:08;22.47;;;12.63;;
20621;SDS011;10470;42.670;23.354;2022-12-07T14:14:54;24.63;;;13.97;;
20621;SDS011;10470;42.670;23.354;2022-12-07T14:17:32;31.50;;;16.40;;
20621;SDS011;10470;42.670;23.354;2022-12-07T14:23:25;22.47;;;13.00;;
20621;SDS011;10470;42.670;23.354;2022-12-07T14:26:19;28.03;;;12.17;;
20621;SDS011;10470;42.670;23.354;2022-12-07T14:32:15;21.10;;;12.30;;
20621;SDS011;10470;42.670;23.354;2022-12-07T14:34:55;24.73;;;12.67;;
20621;SDS011;10470;42.670;23.354;2022-12-07T14:37:42;21.87;;;12.17;;
20621;SDS011;10470;42.670;23.354;2022-12-07T14:40:29;32.97;;;16.37;;
20621;SDS011;10470;42.670;23.354;2022-12-07T14:43:15;35.67;;;16.97;;
20621;SDS011;10470;42.670;23.354;2022-12-07T14:46:02;34.60;;;17.87;;
20621;SDS011;10470;42.670;23.354;2022-12-07T14:48:48;31.80;;;16.07;;
20621;SDS011;10470;42.670;23.354;2022-12-07T14:51:33;32.13;;;14.10;;
20621;SDS011;10470;42.670;23.354;2022-12-07T14:54:23;30.50;;;16.17;;
20621;SDS011;10470;42.670;23.354;2022-12-07T14:57:14;25.20;;;14.07;;
20621;SDS011;10470;42.670;23.354;2022-12-07T15:00:00;30.77;;;14.90;;
20621;SDS011;10470;42.670;23.354;2022-12-07T15:02:45;29.80;;;14.90;;
20621;SDS011;10470;42.670;23.354;2022-12-07T15:05:32;29.47;;;15.03;;
20621;SDS011;10470;42.670;23.354;2022-12-07T15:08:18;33.10;;;16.07;;
20621;SDS011;10470;42.670;23.354;2022-12-07T15:11:04;30.53;;;15.23;;
20621;SDS011;10470;42.670;23.354;2022-12-07T15:13:49;22.67;;;13.03;;
20621;SDS011;10470;42.670;23.354;2022-12-07T15:16:53;24.33;;;13.57;;
20621;SDS011;10470;42.670;23.354;2022-12-07T15:19:38;31.90;;;16.53;;
20621;SDS011;10470;42.670;23.354;2022-12-07T15:22:24;34.10;;;16.67;;
20621;SDS011;10470;42.670;23.354;2022-12-07T15:25:12;31.63;;;16.63;;
20621;SDS011;10470;42.670;23.354;2022-12-07T15:27:58;36.53;;;17.63;;
20621;SDS011;10470;42.670;23.354;2022-12-07T15:30:46;37.63;;;19.70;;
20621;SDS011;10470;42.670;23.354;2022-12-07T15:33:32;46.30;;;26.80;;
20621;SDS011;10470;42.670;23.354;2022-12-07T15:36:18;37.13;;;17.17;;
20621;SDS011;10470;42.670;23.354;2022-12-07T15:39:06;37.00;;;16.80;;
20621;SDS011;10470;42.670;23.354;2022-12-07T15:41:51;34.33;;;17.27;;
20621;SDS011;10470;42.670;23.354;2022-12-07T15:44:37;27.33;;;13.93;;
20621;SDS011;10470;42.670;23.354;2022-12-07T15:47:41;34.33;;;16.77;;
20621;SDS011;10470;42.670;23.354;2022-12-07T15:50:28;34.53;;;16.60;;
20621;SDS011;10470;42.670;23.354;2022-12-07T15:53:13;36.70;;;17.90;;
20621;SDS011;10470;42.670;23.354;2022-12-07T15:55:59;33.27;;;16.80;;
20621;SDS011;10470;42.670;23.354;2022-12-07T15:58:46;35.63;;;17.10;;
20621;SDS011;10470;42.670;23.354;2022-12-07T16:01:31;40.13;;;17.70;;
20621;SDS011;10470;42.670;23.354;2022-12-07T16:04:17;41.20;;;19.07;;
20621;SDS011;10470;42.670;23.354;2022-12-07T16:07:02;37.90;;;19.97;;
20621;SDS011;10470;42.670;23.354;2022-12-07T16:09:48;52.93;;;23.03;;
20621;SDS011;10470;42.670;23.354;2022-12-07T16:12:34;49.83;;;23.80;;
20621;SDS011;10470;42.670;23.354;2022-12-07T16:15:20;49.77;;;22.20;;
20621;SDS011;10470;42.670;23.354;2022-12-07T16:18:06;53.73;;;22.80;;
20621;SDS011;10470;42.670;23.354;2022-12-07T16:20:51;52.60;;;24.30;;
20621;SDS011;10470;42.670;23.354;2022-12-07T16:23:37;45.20;;;23.77;;
20621;SDS011;10470;42.670;23.354;2022-12-07T16:26:22;53.23;;;24.07;;
20621;SDS011;10470;42.670;23.354;2022-12-07T16:29:10;55.87;;;24.90;;
20621;SDS011;10470;42.670;23.354;2022-12-07T16:31:57;58.83;;;25.50;;
20621;SDS011;10470;42.670;23.354;2022-12-07T16:34:42;56.67;;;24.73;;
20621;SDS011;10470;42.670;23.354;2022-12-07T16:37:28;58.03;;;25.93;;
20621;SDS011;10470;42.670;23.354;2022-12-07T16:40:13;55.03;;;23.93;;
20621;SDS011;10470;42.670;23.354;2022-12-07T16:42:59;58.60;;;30.90;;
20621;SDS011;10470;42.670;23.354;2022-12-07T16:45:45;52.93;;;24.83;;
20621;SDS011;10470;42.670;23.354;2022-12-07T16:48:34;45.13;;;20.83;;
20621;SDS011;10470;42.670;23.354;2022-12-07T16:51:21;47.57;;;21.57;;
20621;SDS011;10470;42.670;23.354;2022-12-07T16:54:08;44.50;;;19.67;;
20621;SDS011;10470;42.670;23.354;2022-12-07T16:56:54;44.87;;;21.80;;
20621;SDS011;10470;42.670;23.354;2022-12-07T16:59:39;45.67;;;22.80;;
20621;SDS011;10470;42.670;23.354;2022-12-07T17:02:24;52.77;;;23.87;;
20621;SDS011;10470;42.670;23.354;2022-12-07T17:05:10;50.33;;;23.13;;
20621;SDS011;10470;42.670;23.354;2022-12-07T17:07:56;55.83;;;24.53;;
20621;SDS011;10470;42.670;23.354;2022-12-07T17:10:42;56.47;;;26.07;;
20621;SDS011;10470;42.670;23.354;2022-12-07T17:13:29;57.63;;;26.40;;
20621;SDS011;10470;42.670;23.354;2022-12-07T17:16:34;50.83;;;25.27;;
20621;SDS011;10470;42.670;23.354;2022-12-07T17:19:20;55.50;;;25.63;;
20621;SDS011;10470;42.670;23.354;2022-12-07T17:22:05;53.77;;;25.10;;
20621;SDS011;10470;42.670;23.354;2022-12-07T17:24:51;50.97;;;25.93;;
20621;SDS011;10470;42.670;23.354;2022-12-07T17:27:37;56.73;;;27.30;;
20621;SDS011;10470;42.670;23.354;2022-12-07T17:30:22;56.27;;;26.80;;
20621;SDS011;10470;42.670;23.354;2022-12-07T17:33:08;67.53;;;29.63;;
20621;SDS011;10470;42.670;23.354;2022-12-07T17:35:54;68.23;;;31.47;;
20621;SDS011;10470;42.670;23.354;2022-12-07T17:38:39;61.27;;;32.33;;
20621;SDS011;10470;42.670;23.354;2022-12-07T17:41:29;63.93;;;31.77;;